createdAt,value
2018-07-09T00:01:54.821Z,43.50
2018-07-09T00:04:21.973Z,43.40
2018-07-09T00:06:49.173Z,43.60
2018-07-09T00:09:16.353Z,43.30
2018-07-09T00:11:43.588Z,42.90
2018-07-09T00:16:38.021Z,42.70
2018-07-09T00:19:05.264Z,42.90
2018-07-09T00:21:32.444Z,42.90
2018-07-09T00:23:59.637Z,42.70
2018-07-09T00:26:26.860Z,42.80
2018-07-09T00:28:54.073Z,43.00
2018-07-09T00:31:21.276Z,43.00
2018-07-09T00:33:48.500Z,43.50
2018-07-09T00:36:15.671Z,44.20
2018-07-09T00:38:42.849Z,44.40
2018-07-09T00:41:10.036Z,44.70
2018-07-09T00:43:37.213Z,46.10
2018-07-09T00:46:04.432Z,45.90
2018-07-09T00:48:31.620Z,45.80
2018-07-09T00:50:58.850Z,46.20
2018-07-09T00:53:26.060Z,46.60
2018-07-09T00:55:53.260Z,45.80
2018-07-09T00:58:20.456Z,45.20
2018-07-09T01:00:47.628Z,45.20
2018-07-09T01:03:14.876Z,45.70
2018-07-09T01:05:42.056Z,46.40
2018-07-09T01:08:09.228Z,46.80
2018-07-09T01:10:47.953Z,46.50
2018-07-09T01:13:15.168Z,46.10
2018-07-09T01:15:42.348Z,46.40
2018-07-09T01:18:09.529Z,46.20
2018-07-09T01:20:36.773Z,46.50
2018-07-09T01:23:03.981Z,46.20
2018-07-09T01:25:31.220Z,46.20
2018-07-09T01:27:58.523Z,46.10
2018-07-09T01:30:31.884Z,46.30
2018-07-09T01:32:59.063Z,46.00
2018-07-09T01:35:26.840Z,45.80
2018-07-09T01:37:54.005Z,45.20
2018-07-09T01:40:21.221Z,45.20
2018-07-09T01:42:48.424Z,45.90
2018-07-09T01:45:15.589Z,46.00
2018-07-09T01:47:42.768Z,46.30
2018-07-09T01:50:09.972Z,46.40
2018-07-09T01:52:37.194Z,47.10
2018-07-09T01:55:04.376Z,46.80
2018-07-09T01:57:31.564Z,46.60
2018-07-09T02:00:05.460Z,46.70
2018-07-09T02:02:32.649Z,46.30
2018-07-09T02:04:59.917Z,46.90
2018-07-09T02:07:27.103Z,46.80
2018-07-09T02:09:54.285Z,47.20
2018-07-09T02:12:21.471Z,46.90
2018-07-09T02:14:48.640Z,46.80
2018-07-09T02:17:15.832Z,46.60
2018-07-09T02:19:43.033Z,46.80
2018-07-09T02:22:10.220Z,47.30
2018-07-09T02:24:37.394Z,47.40
2018-07-09T02:27:04.808Z,47.40
2018-07-09T02:29:32.081Z,47.60
2018-07-09T02:31:59.281Z,47.70
2018-07-09T02:34:26.545Z,47.60
2018-07-09T02:36:53.781Z,47.60
2018-07-09T02:39:20.955Z,47.60
2018-07-09T02:41:48.128Z,47.70
2018-07-09T02:44:15.380Z,47.10
2018-07-09T02:46:42.559Z,47.70
2018-07-09T02:49:09.744Z,47.40
2018-07-09T02:51:36.932Z,47.60
2018-07-09T02:54:04.122Z,48.00
2018-07-09T02:56:31.319Z,47.60
2018-07-09T02:58:58.534Z,48.10
2018-07-09T03:01:25.740Z,48.00
2018-07-09T03:03:52.913Z,48.10
2018-07-09T03:06:20.117Z,48.00
2018-07-09T03:08:47.320Z,47.70
2018-07-09T03:11:14.495Z,48.30
2018-07-09T03:13:41.678Z,48.30
2018-07-09T03:16:08.860Z,48.50
2018-07-09T03:18:36.013Z,49.00
2018-07-09T03:21:03.247Z,48.90
2018-07-09T03:23:30.448Z,48.50
2018-07-09T03:25:57.597Z,48.50
2018-07-09T03:28:24.776Z,48.70
2018-07-09T03:30:51.931Z,48.90
2018-07-09T03:33:19.107Z,48.90
2018-07-09T03:35:46.283Z,49.30
2018-07-09T03:38:13.528Z,49.10
2018-07-09T03:40:40.734Z,48.80
2018-07-09T03:43:07.903Z,49.20
2018-07-09T03:45:35.216Z,49.20
2018-07-09T03:50:29.564Z,50.70
2018-07-09T03:52:56.847Z,51.10
2018-07-09T03:55:24.052Z,50.90
2018-07-09T03:57:51.273Z,51.60
2018-07-09T04:00:18.721Z,52.30
2018-07-09T04:02:45.880Z,52.30
2018-07-09T04:05:13.049Z,52.20
2018-07-09T04:07:40.218Z,51.80
2018-07-09T04:10:07.395Z,52.00
2018-07-09T04:12:34.581Z,52.50
2018-07-09T04:15:01.771Z,52.90
2018-07-09T04:17:28.960Z,52.80
2018-07-09T04:19:56.141Z,52.90
2018-07-09T04:22:23.312Z,52.90
2018-07-09T04:24:50.555Z,53.70
2018-07-09T04:27:17.745Z,52.90
2018-07-09T04:29:44.916Z,53.50
2018-07-09T04:32:12.093Z,52.90
2018-07-09T04:34:39.245Z,52.50
2018-07-09T04:37:06.440Z,52.30
2018-07-09T04:39:33.598Z,52.10
2018-07-09T04:42:00.768Z,52.30
2018-07-09T04:44:27.935Z,53.30
2018-07-09T04:46:55.117Z,53.10
2018-07-09T04:49:22.281Z,53.00
2018-07-09T04:51:49.476Z,53.10
2018-07-09T04:54:16.648Z,53.40
2018-07-09T04:56:43.821Z,53.80
2018-07-09T04:59:11.023Z,54.00
2018-07-09T05:01:38.185Z,53.30
2018-07-09T05:04:05.384Z,53.40
2018-07-09T05:06:32.527Z,54.10
2018-07-09T05:08:59.709Z,54.00
2018-07-09T05:11:26.880Z,54.50
2018-07-09T05:13:54.072Z,54.70
2018-07-09T05:16:21.265Z,55.40
2018-07-09T05:18:48.463Z,55.10
2018-07-09T05:21:15.623Z,55.60
2018-07-09T05:23:42.808Z,55.80
2018-07-09T05:26:10.576Z,56.30
2018-07-09T05:28:37.776Z,55.80
2018-07-09T05:31:04.999Z,56.00
2018-07-09T05:33:32.179Z,56.00
2018-07-09T05:35:59.377Z,56.70
2018-07-09T05:38:27.004Z,57.80
2018-07-09T05:40:54.669Z,56.80
2018-07-09T05:43:21.867Z,57.50
2018-07-09T05:45:49.144Z,58.50
2018-07-09T05:48:16.412Z,58.40
2018-07-09T05:50:43.593Z,57.60
2018-07-09T05:53:10.768Z,57.70
2018-07-09T05:55:37.965Z,56.50
2018-07-09T05:58:05.265Z,56.40
2018-07-09T06:00:32.457Z,56.30
2018-07-09T06:03:00.492Z,56.20
2018-07-09T06:07:55.023Z,57.20
2018-07-09T06:12:49.556Z,55.90
2018-07-09T06:15:16.732Z,56.30
2018-07-09T06:17:43.982Z,55.80
2018-07-09T06:20:11.159Z,56.00
2018-07-09T06:22:38.603Z,55.60
2018-07-09T06:25:05.948Z,55.70
2018-07-09T06:27:33.134Z,55.50
2018-07-09T06:30:00.369Z,56.50
2018-07-09T06:32:27.698Z,55.00
2018-07-09T06:34:54.886Z,55.50
2018-07-09T06:37:22.092Z,54.60
2018-07-09T06:39:49.293Z,55.50
2018-07-09T06:42:16.516Z,56.60
2018-07-09T06:44:43.801Z,55.40
2018-07-09T06:47:10.939Z,56.30
2018-07-09T06:49:38.545Z,55.20
2018-07-09T06:52:05.761Z,54.30
2018-07-09T06:54:32.969Z,55.10
2018-07-09T06:57:00.141Z,54.80
2018-07-09T06:59:27.312Z,54.90
2018-07-09T07:01:54.591Z,54.90
2018-07-09T07:04:21.804Z,53.80
2018-07-09T07:06:48.981Z,53.90
2018-07-09T07:09:16.177Z,54.50
2018-07-09T07:11:43.356Z,53.00
2018-07-09T07:14:10.549Z,52.80
2018-07-09T07:16:37.799Z,52.50
2018-07-09T07:19:04.983Z,52.90
2018-07-09T07:21:38.905Z,53.20
2018-07-09T07:24:06.489Z,52.20
2018-07-09T07:26:34.018Z,52.90
2018-07-09T07:29:01.168Z,52.90
2018-07-09T07:31:28.404Z,52.80
2018-07-09T07:33:55.648Z,52.40
2018-07-09T07:36:22.841Z,51.80
2018-07-09T07:38:50.077Z,51.20
2018-07-09T07:41:17.288Z,49.10
2018-07-09T07:43:44.472Z,48.40
2018-07-09T07:46:11.663Z,47.50
2018-07-09T07:48:38.937Z,46.60
2018-07-09T07:51:06.144Z,45.90
2018-07-09T07:53:33.321Z,45.10
2018-07-09T07:56:00.489Z,44.50
2018-07-09T07:58:27.685Z,43.70
2018-07-09T08:00:54.876Z,41.80
2018-07-09T08:03:22.068Z,42.70
2018-07-09T08:05:49.276Z,42.70
2018-07-09T08:08:16.468Z,42.60
2018-07-09T08:10:43.623Z,43.10
2018-07-09T08:13:27.717Z,42.80
2018-07-09T08:15:38.042Z,42.50
2018-07-09T08:18:05.320Z,42.60
2018-07-09T08:20:32.513Z,42.10
2018-07-09T08:22:59.696Z,42.00
2018-07-09T08:25:26.941Z,42.10
2018-07-09T08:27:54.311Z,40.80
2018-07-09T08:30:21.525Z,41.40
2018-07-09T08:32:48.700Z,41.70
2018-07-09T08:35:16.012Z,41.80
2018-07-09T08:37:43.197Z,41.40
2018-07-09T08:40:10.425Z,41.70
2018-07-09T08:42:37.581Z,41.70
2018-07-09T08:45:05.029Z,41.40
2018-07-09T08:47:32.197Z,41.00
2018-07-09T08:49:59.373Z,41.30
2018-07-09T08:52:26.552Z,40.40
2018-07-09T08:54:53.756Z,41.20
2018-07-09T08:57:20.924Z,40.60
2018-07-09T08:59:48.112Z,40.70
2018-07-09T09:02:15.266Z,41.10
2018-07-09T09:04:42.444Z,42.20
2018-07-09T09:07:09.617Z,42.00
2018-07-09T09:09:36.791Z,39.90
2018-07-09T09:12:03.969Z,40.40
2018-07-09T09:14:31.160Z,38.80
2018-07-09T09:16:58.316Z,39.40
2018-07-09T09:19:25.532Z,37.70
2018-07-09T09:21:53.177Z,40.20
2018-07-09T09:24:20.380Z,38.30
2018-07-09T09:26:47.545Z,36.60
2018-07-09T09:29:14.716Z,37.70
2018-07-09T09:31:41.870Z,37.40
2018-07-09T09:34:09.192Z,36.50
2018-07-09T09:36:36.372Z,34.70
2018-07-09T09:39:05.311Z,35.30
2018-07-09T09:41:32.504Z,34.40
2018-07-09T09:43:59.695Z,32.80
2018-07-09T09:46:26.864Z,32.10
2018-07-09T09:48:54.039Z,33.10
2018-07-09T09:51:21.225Z,32.30
2018-07-09T09:53:48.393Z,30.40
2018-07-09T09:56:15.573Z,30.20
2018-07-09T09:58:42.822Z,30.50
2018-07-09T10:01:10.011Z,30.40
2018-07-09T10:03:37.211Z,29.80
2018-07-09T10:06:04.634Z,30.10
2018-07-09T10:08:31.905Z,29.40
2018-07-09T10:10:59.081Z,28.10
2018-07-09T10:15:53.464Z,29.20
2018-07-09T10:18:20.645Z,28.50
2018-07-09T10:20:47.821Z,28.20
2018-07-09T10:23:15.022Z,28.70
2018-07-09T10:25:42.192Z,28.50
2018-07-09T10:28:09.372Z,28.30
2018-07-09T10:30:36.605Z,28.20
2018-07-09T10:33:03.901Z,26.10
2018-07-09T10:35:31.093Z,27.90
2018-07-09T10:37:58.313Z,27.10
2018-07-09T10:40:25.537Z,25.70
2018-07-09T10:42:52.710Z,26.00
2018-07-09T10:47:47.069Z,26.50
2018-07-09T10:50:14.261Z,26.30
2018-07-09T10:52:41.420Z,26.70
2018-07-09T10:55:08.645Z,26.60
2018-07-09T10:57:35.896Z,26.00
2018-07-09T11:02:30.488Z,25.80
2018-07-09T11:04:57.684Z,25.90
2018-07-09T11:07:24.881Z,26.50
2018-07-09T11:09:52.089Z,27.20
2018-07-09T11:12:19.323Z,27.10
2018-07-09T11:14:46.608Z,26.70
2018-07-09T11:17:13.867Z,25.60
2018-07-09T11:19:41.046Z,25.90
2018-07-09T11:22:08.257Z,27.00
2018-07-09T11:24:35.472Z,28.00
2018-07-09T11:27:02.664Z,26.00
2018-07-09T11:29:30.387Z,26.40
2018-07-09T11:31:57.564Z,27.20
2018-07-09T11:34:24.741Z,29.00
2018-07-09T11:36:51.925Z,27.60
2018-07-09T11:39:19.089Z,28.00
2018-07-09T11:41:46.256Z,29.70
2018-07-09T11:44:13.453Z,29.90
2018-07-09T11:46:40.743Z,27.90
2018-07-09T11:49:07.927Z,27.20
2018-07-09T11:51:35.129Z,29.30
2018-07-09T11:54:02.301Z,29.80
2018-07-09T11:56:29.485Z,30.90
2018-07-09T11:58:56.683Z,27.20
2018-07-09T12:01:23.849Z,30.00
2018-07-09T12:03:51.041Z,28.70
2018-07-09T12:06:18.292Z,26.90
2018-07-09T12:08:45.467Z,29.10
2018-07-09T12:11:12.741Z,30.00
2018-07-09T12:13:39.922Z,30.00
2018-07-09T12:16:07.168Z,28.50
2018-07-09T12:18:34.357Z,28.60
2018-07-09T12:21:02.036Z,27.90
2018-07-09T12:23:29.201Z,29.40
2018-07-09T12:25:56.381Z,28.00
2018-07-09T12:28:23.570Z,29.10
2018-07-09T12:30:50.762Z,29.10
2018-07-09T12:33:17.945Z,29.00
2018-07-09T12:35:45.134Z,28.70
2018-07-09T12:38:12.309Z,28.40
2018-07-09T12:40:39.489Z,27.10
2018-07-09T12:43:07.109Z,28.20
2018-07-09T12:45:34.300Z,27.90
2018-07-09T12:48:01.514Z,26.80
2018-07-09T12:50:28.701Z,28.00
2018-07-09T12:52:55.892Z,27.40
2018-07-09T12:55:23.056Z,28.80
2018-07-09T12:57:50.213Z,30.80
2018-07-09T13:00:17.388Z,31.00
2018-07-09T13:02:44.548Z,31.20
2018-07-09T13:07:38.933Z,30.00
2018-07-09T13:10:06.144Z,28.20
2018-07-09T13:12:33.341Z,29.90
2018-07-09T13:15:00.641Z,26.90
2018-07-09T13:17:27.901Z,28.30
2018-07-09T13:19:55.152Z,27.40
2018-07-09T13:22:22.301Z,28.00
2018-07-09T13:24:49.725Z,27.30
2018-07-09T13:27:16.932Z,28.20
2018-07-09T13:29:44.127Z,26.60
2018-07-09T13:32:11.497Z,26.10
2018-07-09T13:34:38.668Z,26.70
2018-07-09T13:37:06.026Z,26.70
2018-07-09T13:39:33.769Z,25.30
2018-07-09T13:42:00.988Z,24.40
2018-07-09T13:44:28.185Z,24.80
2018-07-09T13:46:55.592Z,26.50
2018-07-09T13:49:22.817Z,25.70
2018-07-09T13:51:50.016Z,23.70
2018-07-09T13:54:17.229Z,25.50
2018-07-09T13:56:44.637Z,26.50
2018-07-09T13:59:11.913Z,26.00
2018-07-09T14:01:39.079Z,26.90
2018-07-09T14:04:08.661Z,27.90
2018-07-09T14:06:35.839Z,28.10
2018-07-09T14:09:03.936Z,27.30
2018-07-09T14:11:31.104Z,27.60
2018-07-09T14:13:58.299Z,26.70
2018-07-09T14:16:25.485Z,26.50
2018-07-09T14:18:52.726Z,26.90
2018-07-09T14:21:19.844Z,27.00
2018-07-09T14:23:47.012Z,27.00
2018-07-09T14:26:14.216Z,27.10
2018-07-09T14:28:41.698Z,26.80
2018-07-09T14:31:08.990Z,29.60
2018-07-09T14:33:36.117Z,28.70
2018-07-09T14:36:03.428Z,29.90
2018-07-09T14:38:30.678Z,29.10
2018-07-09T14:40:57.883Z,30.00
2018-07-09T14:43:25.049Z,30.70
2018-07-09T14:45:52.221Z,30.70
2018-07-09T14:48:19.415Z,29.80
2018-07-09T14:50:46.617Z,30.30
2018-07-09T14:53:13.829Z,31.00
2018-07-09T14:55:41.017Z,29.10
2018-07-09T14:58:08.249Z,30.10
2018-07-09T15:00:35.457Z,30.10
2018-07-09T15:03:02.672Z,29.40
2018-07-09T15:05:29.930Z,30.20
2018-07-09T15:07:57.117Z,29.10
2018-07-09T15:10:24.360Z,29.70
2018-07-09T15:12:51.565Z,29.30
2018-07-09T15:15:18.785Z,29.20
2018-07-09T15:17:46.001Z,29.70
2018-07-09T15:20:13.211Z,29.60
2018-07-09T15:22:40.403Z,30.90
2018-07-09T15:27:34.858Z,30.80
2018-07-09T15:30:02.149Z,32.30
2018-07-09T15:32:30.452Z,31.50
2018-07-09T15:34:57.669Z,31.70
2018-07-09T15:37:25.390Z,31.80
2018-07-09T15:39:52.853Z,32.10
2018-07-09T15:42:20.172Z,30.60
2018-07-09T15:44:47.456Z,33.30
2018-07-09T15:47:14.701Z,33.70
2018-07-09T15:49:42.316Z,32.80
2018-07-09T15:52:09.504Z,32.40
2018-07-09T15:54:36.781Z,33.20
2018-07-09T15:57:04.238Z,33.20
2018-07-09T15:59:31.572Z,32.40
2018-07-09T16:01:58.996Z,33.50
2018-07-09T16:04:26.185Z,34.60
2018-07-09T16:06:53.409Z,34.20
2018-07-09T16:09:20.597Z,34.60
2018-07-09T16:11:47.830Z,36.20
2018-07-09T16:14:15.002Z,34.60
2018-07-09T16:16:42.206Z,35.80
2018-07-09T16:19:09.429Z,35.80
2018-07-09T16:21:36.598Z,35.00
2018-07-09T16:24:04.028Z,36.30
2018-07-09T18:32:54.473Z,40.70
2018-07-09T18:35:21.669Z,40.70
2018-07-09T18:37:48.849Z,41.00
2018-07-09T18:40:16.100Z,40.90
2018-07-09T18:42:43.275Z,41.60
2018-07-09T18:45:10.560Z,41.10
2018-07-09T18:47:37.742Z,41.50
2018-07-09T18:50:04.944Z,42.10
2018-07-09T18:52:32.152Z,41.30
2018-07-09T18:54:59.506Z,42.50
2018-07-09T18:57:26.725Z,43.10
2018-07-09T18:59:54.236Z,42.60
2018-07-09T19:02:21.524Z,42.10
2018-07-09T19:04:48.820Z,42.50
2018-07-09T19:07:24.425Z,43.10
2018-07-09T19:09:51.899Z,42.70
2018-07-09T19:12:19.134Z,43.10
2018-07-09T19:14:47.561Z,42.90
2018-07-09T19:18:03.086Z,43.80
2018-07-09T19:20:41.863Z,44.00
2018-07-09T19:23:08.645Z,44.20
2018-07-09T19:25:35.899Z,44.60
2018-07-09T19:28:03.491Z,45.10
2018-07-09T19:30:29.843Z,45.30
2018-07-09T19:32:56.197Z,45.60
2018-07-09T19:37:49.553Z,45.80
2018-07-09T19:40:15.640Z,45.40
2018-07-09T19:42:41.938Z,45.40
2018-07-09T19:45:08.329Z,45.10
2018-07-09T19:47:34.573Z,45.40
2018-07-09T19:50:00.888Z,45.40
2018-07-09T19:52:27.150Z,46.00
2018-07-09T19:54:53.469Z,46.30
2018-07-09T19:57:19.693Z,46.20
2018-07-09T19:59:46.591Z,46.80
2018-07-09T20:04:39.973Z,46.30
2018-07-09T20:07:06.333Z,46.50
2018-07-09T20:09:38.483Z,46.80
2018-07-09T20:12:10.525Z,46.70
2018-07-09T20:14:42.496Z,46.80
2018-07-09T20:17:14.517Z,46.60
2018-07-09T20:19:40.867Z,47.10
2018-07-09T20:22:07.289Z,47.50
2018-07-09T20:24:33.577Z,47.70
2018-07-09T20:29:26.938Z,48.20
2018-07-09T20:31:53.333Z,48.00
2018-07-09T20:34:19.675Z,48.00
2018-07-09T20:36:45.996Z,47.90
2018-07-09T20:39:12.248Z,48.30
2018-07-09T20:44:05.235Z,48.30
2018-07-09T20:46:31.574Z,48.30
2018-07-09T20:48:58.096Z,49.10
2018-07-09T20:51:24.557Z,49.30
2018-07-09T20:53:50.813Z,49.50
2018-07-09T20:56:17.336Z,49.50
2018-07-09T20:58:43.637Z,50.30
2018-07-09T21:01:09.982Z,49.90
2018-07-09T21:03:36.229Z,50.10
2018-07-09T21:06:02.490Z,49.90
2018-07-09T21:08:28.852Z,50.10
2018-07-09T21:10:55.225Z,49.50
2018-07-09T21:13:21.493Z,49.60
2018-07-09T21:15:47.857Z,49.90
2018-07-09T21:18:14.126Z,49.50
2018-07-09T21:20:40.376Z,50.10
2018-07-09T21:23:06.635Z,50.20
2018-07-09T21:25:32.913Z,50.10
2018-07-09T21:27:59.164Z,49.70
2018-07-09T21:30:25.441Z,49.70
2018-07-09T21:32:51.688Z,49.90
2018-07-09T21:35:17.941Z,50.10
2018-07-09T21:37:44.257Z,50.00
2018-07-09T21:40:10.457Z,50.30
2018-07-09T21:42:36.701Z,50.30
2018-07-09T21:45:02.957Z,50.30
2018-07-09T21:47:29.208Z,50.70
2018-07-09T21:49:55.470Z,50.90
2018-07-09T21:52:21.868Z,51.20
2018-07-09T21:54:48.129Z,51.30
2018-07-09T21:57:14.384Z,51.60
2018-07-09T21:59:40.648Z,51.40
2018-07-09T22:02:06.900Z,51.20
2018-07-09T22:04:33.153Z,52.00
2018-07-09T22:06:59.413Z,52.10
2018-07-09T22:09:25.890Z,52.20
2018-07-09T22:11:52.310Z,52.30
2018-07-09T22:14:18.673Z,52.00
2018-07-09T22:16:44.924Z,52.40
2018-07-09T22:19:11.280Z,52.40
2018-07-09T22:21:37.549Z,52.40
2018-07-09T22:24:03.801Z,52.60
2018-07-09T22:26:30.065Z,52.50
2018-07-09T22:28:56.312Z,52.10
2018-07-09T22:31:23.508Z,52.30
2018-07-09T22:33:50.760Z,52.10
2018-07-09T22:36:17.945Z,53.30
2018-07-09T22:38:45.129Z,52.50
2018-07-09T22:41:12.312Z,53.10
2018-07-09T22:43:51.062Z,53.60
2018-07-09T22:46:18.242Z,52.40
2018-07-09T22:48:45.404Z,53.20
2018-07-09T22:51:12.798Z,53.10
2018-07-09T22:53:39.892Z,53.40
2018-07-09T22:56:10.076Z,53.80
2018-07-09T22:58:38.664Z,54.10
2018-07-09T23:01:05.913Z,54.40
2018-07-09T23:03:33.101Z,54.50
2018-07-09T23:06:00.302Z,54.90
2018-07-09T23:08:27.493Z,55.40
2018-07-09T23:12:30.368Z,55.80
2018-07-09T23:18:15.223Z,55.80
2018-07-09T23:20:54.078Z,55.80
2018-07-09T23:23:20.289Z,56.40
2018-07-09T23:25:46.570Z,56.80
2018-07-09T23:28:12.830Z,56.70
2018-07-09T23:30:39.164Z,56.70
2018-07-09T23:33:05.408Z,56.50
2018-07-09T23:35:31.647Z,56.40
2018-07-09T23:37:57.905Z,56.50
2018-07-09T23:40:24.158Z,56.80
2018-07-09T23:45:17.125Z,57.30
2018-07-09T23:47:43.375Z,57.60
2018-07-09T23:50:09.635Z,57.50
2018-07-09T23:52:35.884Z,58.10
2018-07-09T23:55:02.136Z,57.60
2018-07-09T23:59:49.023Z,57.60
